createdAt,value
2017-04-24T00:00:29.063Z,0
2017-04-24T00:01:50.704Z,0
2017-04-24T00:03:12.919Z,0
2017-04-24T00:04:35.160Z,0
2017-04-24T00:05:56.761Z,0
2017-04-24T00:07:18.356Z,0
2017-04-24T00:08:39.866Z,0
2017-04-24T00:10:02.029Z,0
2017-04-24T00:11:24.483Z,0
2017-04-24T00:12:47.010Z,0
2017-04-24T00:14:08.848Z,0
2017-04-24T00:15:30.997Z,0
2017-04-24T00:16:53.488Z,0
2017-04-24T00:18:15.308Z,0
2017-04-24T00:19:37.127Z,0
2017-04-24T00:20:58.939Z,0
2017-04-24T00:22:20.539Z,0
2017-04-24T00:23:42.352Z,0
2017-04-24T00:25:04.173Z,0
2017-04-24T00:26:26.019Z,0
2017-04-24T00:27:48.529Z,0
2017-04-24T00:29:09.730Z,0
2017-04-24T00:30:31.552Z,0
2017-04-24T00:31:53.378Z,0
2017-04-24T00:33:15.828Z,0
2017-04-24T00:34:37.643Z,0
2017-04-24T00:35:59.178Z,0
2017-04-24T00:37:20.702Z,0
2017-04-24T00:38:42.809Z,0
2017-04-24T00:40:04.004Z,0
2017-04-24T00:41:26.174Z,0
2017-04-24T00:42:48.340Z,0
2017-04-24T00:44:11.108Z,0
2017-04-24T00:45:32.038Z,0
2017-04-24T00:46:54.241Z,0
2017-04-24T00:48:16.116Z,0
2017-04-24T00:49:38.300Z,0
2017-04-24T00:51:00.133Z,0
2017-04-24T00:52:21.950Z,0
2017-04-24T00:53:43.764Z,0
2017-04-24T00:55:06.561Z,0
2017-04-24T00:56:29.049Z,0
2017-04-24T00:57:51.257Z,0
2017-04-24T00:59:13.713Z,0
2017-04-24T01:00:35.865Z,0
2017-04-24T01:01:57.684Z,0
2017-04-24T01:03:19.888Z,0
2017-04-24T01:04:42.379Z,0
2017-04-24T01:06:04.821Z,0
2017-04-24T01:07:26.965Z,0
2017-04-24T01:08:49.079Z,0
2017-04-24T01:10:11.221Z,0
2017-04-24T01:11:33.288Z,0
2017-04-24T01:12:55.115Z,0
2017-04-24T01:14:17.359Z,0
2017-04-24T01:15:39.187Z,0
2017-04-24T01:17:01.358Z,0
2017-04-24T01:18:23.194Z,0
2017-04-24T01:19:45.328Z,0
2017-04-24T01:21:07.159Z,0
2017-04-24T01:22:29.312Z,0
2017-04-24T01:23:51.146Z,0
2017-04-24T01:25:13.024Z,0
2017-04-24T01:26:34.541Z,0
2017-04-24T01:27:56.981Z,0
2017-04-24T01:29:18.818Z,0
2017-04-24T01:30:40.656Z,0
2017-04-24T01:32:02.533Z,0
2017-04-24T01:33:24.665Z,0
2017-04-24T01:34:45.888Z,0
2017-04-24T01:36:08.013Z,0
2017-04-24T01:37:30.239Z,0
2017-04-24T01:38:52.365Z,0
2017-04-24T01:40:14.279Z,0
2017-04-24T01:41:36.100Z,0
2017-04-24T01:42:58.253Z,0
2017-04-24T01:44:20.108Z,0
2017-04-24T01:45:41.666Z,0
2017-04-24T01:47:03.209Z,0
2017-04-24T01:48:25.368Z,0
2017-04-24T01:49:47.548Z,0
2017-04-24T01:51:08.747Z,0
2017-04-24T01:52:29.927Z,0
2017-04-24T01:53:51.754Z,0
2017-04-24T01:55:14.568Z,0
2017-04-24T01:56:36.700Z,0
2017-04-24T01:57:58.538Z,0
2017-04-24T01:59:20.699Z,0
2017-04-24T02:00:43.214Z,0
2017-04-24T02:02:05.350Z,0
2017-04-24T02:03:27.588Z,0
2017-04-24T02:04:48.778Z,0
2017-04-24T02:06:11.604Z,0
2017-04-24T02:07:33.116Z,0
2017-04-24T02:08:55.641Z,0
2017-04-24T02:10:16.814Z,0
2017-04-24T02:11:39.008Z,0
2017-04-24T02:13:00.839Z,0
2017-04-24T02:14:23.051Z,0
2017-04-24T02:15:44.652Z,0
2017-04-24T02:17:06.823Z,0
2017-04-24T02:18:28.440Z,0
2017-04-24T02:19:50.699Z,0
2017-04-24T02:21:12.053Z,0
2017-04-24T02:22:34.210Z,0
2017-04-24T02:23:55.408Z,0
2017-04-24T02:25:16.901Z,0
2017-04-24T02:26:39.044Z,0
2017-04-24T02:28:01.315Z,0
2017-04-24T02:29:23.458Z,0
2017-04-24T02:30:45.319Z,0
2017-04-24T02:32:07.125Z,0
2017-04-24T02:33:29.567Z,0
2017-04-24T02:34:51.115Z,0
2017-04-24T02:36:13.589Z,0
2017-04-24T02:37:35.781Z,0
2017-04-24T02:38:57.916Z,0
2017-04-24T02:40:20.045Z,0
2017-04-24T02:41:41.555Z,0
2017-04-24T02:43:03.468Z,0
2017-04-24T02:44:25.909Z,0
2017-04-24T02:45:48.062Z,0
2017-04-24T02:47:09.878Z,0
2017-04-24T02:48:31.802Z,0
2017-04-24T02:49:54.067Z,0
2017-04-24T02:51:15.590Z,0
2017-04-24T02:52:37.518Z,0
2017-04-24T02:53:59.680Z,0
2017-04-24T02:55:21.543Z,0
2017-04-24T02:56:43.050Z,0
2017-04-24T02:58:04.589Z,0
2017-04-24T02:59:26.431Z,0
2017-04-24T03:00:48.767Z,0
2017-04-24T03:02:10.691Z,0
2017-04-24T03:03:33.348Z,0
2017-04-24T03:04:54.847Z,0
2017-04-24T03:06:17.326Z,0
2017-04-24T03:07:39.383Z,0
2017-04-24T03:09:00.887Z,0
2017-04-24T03:10:23.068Z,0
2017-04-24T03:11:45.590Z,0
2017-04-24T03:13:07.107Z,0
2017-04-24T03:14:29.304Z,0
2017-04-24T03:15:50.834Z,0
2017-04-24T03:17:13.007Z,0
2017-04-24T03:18:34.523Z,0
2017-04-24T03:19:56.661Z,0
2017-04-24T03:21:19.238Z,0
2017-04-24T03:22:41.170Z,0
2017-04-24T03:24:03.312Z,0
2017-04-24T03:25:24.803Z,0
2017-04-24T03:26:46.324Z,0
2017-04-24T03:28:08.397Z,0
2017-04-24T03:29:30.561Z,0
2017-04-24T03:30:52.717Z,4
2017-04-24T03:32:14.625Z,4
2017-04-24T03:33:37.182Z,0
2017-04-24T03:34:59.167Z,4
2017-04-24T03:36:20.987Z,8
2017-04-24T03:37:42.818Z,4
2017-04-24T03:39:04.930Z,4
2017-04-24T03:40:27.588Z,8
2017-04-24T03:41:49.072Z,12
2017-04-24T03:43:10.628Z,16
2017-04-24T03:44:32.457Z,16
2017-04-24T03:45:54.917Z,20
2017-04-24T03:47:17.062Z,24
2017-04-24T03:48:38.562Z,24
2017-04-24T03:50:00.698Z,28
2017-04-24T03:51:23.159Z,36
2017-04-24T03:52:44.990Z,40
2017-04-24T03:54:06.813Z,52
2017-04-24T03:55:28.980Z,64
2017-04-24T03:57:23.405Z,76
2017-04-24T03:58:45.247Z,88
2017-04-24T04:00:06.469Z,100
2017-04-24T04:01:28.627Z,116
2017-04-24T04:02:50.438Z,140
2017-04-24T04:04:12.339Z,156
2017-04-24T04:05:33.872Z,176
2017-04-24T04:06:56.037Z,204
2017-04-24T04:08:18.199Z,228
2017-04-24T04:09:40.541Z,260
2017-04-24T04:11:34.461Z,284
2017-04-24T04:12:57.029Z,292
2017-04-24T04:14:19.476Z,316
2017-04-24T04:15:41.650Z,360
2017-04-24T04:17:03.407Z,392
2017-04-24T04:18:24.923Z,448
2017-04-24T04:19:47.114Z,512
2017-04-24T04:21:08.945Z,580
2017-04-24T04:22:31.382Z,640
2017-04-24T04:23:52.902Z,704
2017-04-24T04:25:14.480Z,780
2017-04-24T04:26:36.620Z,872
2017-04-24T04:27:59.009Z,952
2017-04-24T04:29:21.164Z,996
2017-04-24T04:30:42.677Z,1040
2017-04-24T04:32:04.187Z,1084
2017-04-24T04:33:27.072Z,1128
2017-04-24T04:34:49.215Z,1148
2017-04-24T04:36:11.675Z,1204
2017-04-24T04:37:34.168Z,1316
2017-04-24T04:38:56.346Z,1360
2017-04-24T04:40:18.207Z,1420
2017-04-24T04:41:40.020Z,1452
2017-04-24T04:43:02.146Z,1536
2017-04-24T04:44:24.376Z,1664
2017-04-24T04:45:46.554Z,1764
2017-04-24T04:47:08.054Z,1812
2017-04-24T04:48:30.299Z,1900
2017-04-24T04:49:52.682Z,2052
2017-04-24T04:51:14.893Z,2120
2017-04-24T04:52:37.037Z,2160
2017-04-24T04:53:58.551Z,2256
2017-04-24T04:55:20.955Z,2332
2017-04-24T04:56:42.763Z,2424
2017-04-24T04:58:04.991Z,2476
2017-04-24T04:59:27.206Z,2464
2017-04-24T05:00:49.332Z,2588
2017-04-24T05:02:11.611Z,2800
2017-04-24T05:03:33.639Z,3016
2017-04-24T05:04:55.878Z,3224
2017-04-24T05:06:18.380Z,3316
2017-04-24T05:07:40.571Z,3396
2017-04-24T05:09:02.722Z,3568
2017-04-24T05:10:24.889Z,3788
2017-04-24T05:11:47.419Z,3844
2017-04-24T05:13:09.578Z,3668
2017-04-24T05:14:31.707Z,3572
2017-04-24T05:15:53.875Z,3544
2017-04-24T05:17:15.689Z,3460
2017-04-24T05:18:38.166Z,3424
2017-04-24T05:19:59.702Z,3484
2017-04-24T05:21:21.594Z,3700
2017-04-24T05:22:44.398Z,4032
2017-04-24T05:24:06.534Z,4524
2017-04-24T05:25:28.391Z,4828
2017-04-24T05:26:50.148Z,5356
2017-04-24T05:28:12.903Z,5656
2017-04-24T05:29:35.064Z,5172
2017-04-24T05:30:56.984Z,4544
2017-04-24T05:32:19.107Z,4064
2017-04-24T05:33:42.004Z,3860
2017-04-24T05:35:03.848Z,3740
2017-04-24T05:36:25.687Z,3880
2017-04-24T05:37:47.854Z,4496
2017-04-24T05:39:10.316Z,5180
2017-04-24T05:40:31.837Z,5396
2017-04-24T05:41:53.659Z,5240
2017-04-24T05:43:15.817Z,4928
2017-04-24T05:44:38.269Z,4544
2017-04-24T05:45:59.783Z,4136
2017-04-24T05:47:21.918Z,3928
2017-04-24T05:48:44.096Z,4160
2017-04-24T05:50:06.172Z,5084
2017-04-24T05:51:28.107Z,5728
2017-04-24T05:52:49.941Z,6096
2017-04-24T05:54:11.748Z,6784
2017-04-24T05:55:33.968Z,7096
2017-04-24T05:56:55.819Z,7788
2017-04-24T05:58:17.990Z,8756
2017-04-24T05:59:39.528Z,8712
2017-04-24T06:01:01.336Z,7512
2017-04-24T06:02:22.886Z,6068
2017-04-24T06:03:45.421Z,5536
2017-04-24T06:05:07.897Z,5796
2017-04-24T06:06:29.718Z,6484
2017-04-24T06:07:51.541Z,6788
2017-04-24T06:09:14.009Z,6552
2017-04-24T06:10:36.549Z,6156
2017-04-24T06:11:59.010Z,5924
2017-04-24T06:13:20.847Z,6096
2017-04-24T06:14:42.740Z,5964
2017-04-24T06:16:04.708Z,5732
2017-04-24T06:17:26.522Z,6480
2017-04-24T06:18:48.669Z,6548
2017-04-24T06:20:10.495Z,6276
2017-04-24T06:21:33.029Z,6376
2017-04-24T06:22:55.835Z,6924
2017-04-24T06:24:17.656Z,7004
2017-04-24T06:25:40.218Z,7964
2017-04-24T06:27:02.581Z,8700
2017-04-24T06:28:25.448Z,9436
2017-04-24T06:29:47.598Z,9504
2017-04-24T06:31:09.905Z,9412
2017-04-24T06:32:31.099Z,9564
2017-04-24T06:33:52.872Z,9788
2017-04-24T06:35:15.318Z,9448
2017-04-24T06:36:37.154Z,9784
2017-04-24T06:37:58.351Z,10864
2017-04-24T06:39:21.127Z,11620
2017-04-24T06:40:43.048Z,11812
2017-04-24T06:42:05.544Z,11904
2017-04-24T06:43:27.061Z,12152
2017-04-24T06:44:49.329Z,13044
2017-04-24T06:46:11.777Z,14472
2017-04-24T06:47:33.952Z,14864
2017-04-24T06:48:56.111Z,15540
2017-04-24T06:50:19.107Z,16992
2017-04-24T06:51:40.398Z,17408
2017-04-24T06:53:02.542Z,14952
2017-04-24T06:54:24.733Z,13496
2017-04-24T06:55:46.927Z,12732
2017-04-24T06:57:08.758Z,13332
2017-04-24T06:58:30.592Z,13444
2017-04-24T06:59:53.106Z,15596
2017-04-24T07:01:15.399Z,18656
2017-04-24T07:02:36.994Z,18368
2017-04-24T07:03:58.868Z,18752
2017-04-24T07:05:20.689Z,18720
2017-04-24T07:06:43.098Z,14980
2017-04-24T07:08:04.829Z,13708
2017-04-24T07:09:26.699Z,13696
2017-04-24T07:10:48.841Z,14492
2017-04-24T07:12:11.287Z,14604
2017-04-24T07:13:33.778Z,13504
2017-04-24T07:14:55.796Z,14880
2017-04-24T07:16:17.309Z,16160
2017-04-24T07:17:39.765Z,14072
2017-04-24T07:19:01.078Z,14732
2017-04-24T07:20:22.577Z,16576
2017-04-24T07:21:44.782Z,15432
2017-04-24T07:23:06.599Z,14992
2017-04-24T07:24:28.833Z,12396
2017-04-24T07:25:51.112Z,10664
2017-04-24T07:27:12.687Z,11724
2017-04-24T07:28:35.427Z,15244
2017-04-24T07:29:56.947Z,16896
2017-04-24T07:31:18.458Z,21120
2017-04-24T07:32:40.603Z,18976
2017-04-24T07:34:03.526Z,19808
2017-04-24T07:35:25.994Z,21440
2017-04-24T07:36:47.817Z,24224
2017-04-24T07:38:09.012Z,23840
2017-04-24T07:39:31.349Z,25120
2017-04-24T07:40:53.178Z,20576
2017-04-24T07:42:14.109Z,19040
2017-04-24T07:43:35.951Z,19168
2017-04-24T07:44:58.395Z,19616
2017-04-24T07:46:19.928Z,18432
2017-04-24T07:47:41.439Z,18336
2017-04-24T07:49:02.950Z,20736
2017-04-24T07:50:25.438Z,21728
2017-04-24T07:51:47.589Z,21920
2017-04-24T07:53:09.753Z,22624
2017-04-24T07:54:31.309Z,23392
2017-04-24T07:55:53.169Z,23840
2017-04-24T07:57:14.709Z,23328
2017-04-24T07:58:36.969Z,21920
2017-04-24T07:59:58.626Z,19776
2017-04-24T08:01:21.425Z,20032
2017-04-24T08:02:43.700Z,20736
2017-04-24T08:04:05.580Z,15364
2017-04-24T08:05:27.708Z,14252
2017-04-24T08:06:49.849Z,17088
2017-04-24T08:08:12.004Z,18848
2017-04-24T08:09:33.565Z,18592
2017-04-24T08:10:56.030Z,19968
2017-04-24T08:12:17.884Z,19424
2017-04-24T08:13:39.407Z,14792
2017-04-24T08:15:00.919Z,16672
2017-04-24T08:16:22.472Z,18560
2017-04-24T08:17:44.599Z,18912
2017-04-24T08:19:06.464Z,20320
2017-04-24T08:20:28.050Z,21216
2017-04-24T08:21:49.870Z,18784
2017-04-24T08:23:12.599Z,16256
2017-04-24T08:24:34.799Z,17600
2017-04-24T08:25:56.648Z,20512
2017-04-24T08:27:18.163Z,22688
2017-04-24T08:28:40.308Z,23040
2017-04-24T08:30:02.461Z,23392
2017-04-24T08:31:24.721Z,24032
2017-04-24T08:32:47.330Z,24192
2017-04-24T08:34:09.478Z,24320
2017-04-24T08:35:31.953Z,23616
2017-04-24T08:36:53.806Z,21408
2017-04-24T08:38:15.726Z,18816
2017-04-24T08:39:38.134Z,18272
2017-04-24T08:40:59.979Z,16864
2017-04-24T08:42:22.179Z,19808
2017-04-24T08:43:44.018Z,19360
2017-04-24T08:45:05.548Z,17344
2017-04-24T08:46:27.683Z,17088
2017-04-24T08:47:49.537Z,16384
2017-04-24T08:49:11.367Z,16416
2017-04-24T08:50:33.509Z,17600
2017-04-24T08:51:55.026Z,18656
2017-04-24T08:53:17.197Z,20800
2017-04-24T08:54:39.458Z,21632
2017-04-24T08:56:01.440Z,19840
2017-04-24T08:57:23.618Z,19328
2017-04-24T08:58:45.443Z,19712
2017-04-24T09:00:07.302Z,20352
2017-04-24T09:01:30.168Z,18176
2017-04-24T09:02:52.312Z,18944
2017-04-24T09:04:13.846Z,19456
2017-04-24T09:05:35.688Z,19904
2017-04-24T09:06:58.519Z,21536
2017-04-24T09:08:20.400Z,23456
2017-04-24T09:09:42.883Z,20800
2017-04-24T09:11:04.829Z,21632
2017-04-24T09:12:27.458Z,20928
2017-04-24T09:13:49.703Z,21856
2017-04-24T09:15:12.069Z,21856
2017-04-24T09:16:33.916Z,25248
2017-04-24T09:17:56.457Z,27104
2017-04-24T09:19:18.374Z,25664
2017-04-24T09:20:40.245Z,24160
2017-04-24T09:22:02.409Z,21440
2017-04-24T09:23:24.227Z,20800
2017-04-24T09:24:46.395Z,19488
2017-04-24T09:26:08.231Z,18688
2017-04-24T09:27:30.434Z,18944
2017-04-24T09:28:52.239Z,17376
2017-04-24T09:30:14.076Z,17472
2017-04-24T09:31:35.657Z,20672
2017-04-24T09:32:57.179Z,20224
2017-04-24T09:34:19.422Z,12288
2017-04-24T09:35:41.250Z,9460
2017-04-24T09:37:03.388Z,9636
2017-04-24T09:38:25.547Z,11048
2017-04-24T09:39:46.698Z,12856
2017-04-24T09:41:08.605Z,14620
2017-04-24T09:42:31.090Z,13920
2017-04-24T09:43:52.989Z,14372
2017-04-24T09:45:15.829Z,12788
2017-04-24T09:46:38.106Z,13872
2017-04-24T09:48:00.276Z,16252
2017-04-24T09:49:22.449Z,17408
2017-04-24T09:50:44.638Z,18656
2017-04-24T09:52:06.149Z,17440
2017-04-24T09:53:27.668Z,15948
2017-04-24T09:54:50.178Z,15904
2017-04-24T09:56:12.686Z,15980
2017-04-24T09:57:35.175Z,15840
2017-04-24T09:58:57.341Z,16832
2017-04-24T10:00:18.888Z,20288
2017-04-24T10:01:41.405Z,21056
2017-04-24T10:03:03.660Z,19616
2017-04-24T10:04:25.538Z,19296
2017-04-24T10:05:47.788Z,17248
2017-04-24T10:07:09.880Z,18112
2017-04-24T10:08:32.034Z,16288
2017-04-24T10:09:53.559Z,12540
2017-04-24T10:11:15.707Z,11704
2017-04-24T10:12:37.972Z,10256
2017-04-24T10:14:31.800Z,11088
2017-04-24T10:15:54.358Z,9424
2017-04-24T10:17:16.836Z,10460
2017-04-24T10:18:39.238Z,12628
2017-04-24T10:20:01.770Z,14776
2017-04-24T10:21:24.004Z,15924
2017-04-24T10:22:46.137Z,17408
2017-04-24T10:24:07.639Z,11932
2017-04-24T10:25:29.810Z,11844
2017-04-24T10:26:52.265Z,14204
2017-04-24T10:28:15.118Z,18048
2017-04-24T10:29:37.004Z,19392
2017-04-24T10:30:58.518Z,12784
2017-04-24T10:32:20.679Z,13616
2017-04-24T10:33:42.908Z,12928
2017-04-24T10:35:04.795Z,14216
2017-04-24T10:36:27.028Z,13460
2017-04-24T10:37:49.538Z,16800
2017-04-24T10:39:11.677Z,17472
2017-04-24T10:40:33.247Z,15908
2017-04-24T10:41:55.187Z,16928
2017-04-24T10:43:17.018Z,18656
2017-04-24T10:44:39.816Z,21472
2017-04-24T10:46:02.297Z,21824
2017-04-24T10:47:23.807Z,21792
2017-04-24T10:48:44.707Z,19712
2017-04-24T10:50:06.517Z,20448
2017-04-24T10:51:28.036Z,19392
2017-04-24T10:52:49.978Z,15288
2017-04-24T10:54:12.181Z,18400
2017-04-24T10:55:34.348Z,20128
2017-04-24T10:56:56.208Z,21632
2017-04-24T10:58:18.028Z,18912
2017-04-24T10:59:39.559Z,17248
2017-04-24T11:01:01.962Z,15708
2017-04-24T11:02:23.792Z,14096
2017-04-24T11:03:45.942Z,12540
2017-04-24T11:05:07.787Z,10300
2017-04-24T11:06:30.248Z,10992
2017-04-24T11:07:52.736Z,10232
2017-04-24T11:09:14.587Z,9172
2017-04-24T11:10:36.848Z,10092
2017-04-24T11:11:58.938Z,13328
2017-04-24T11:13:21.124Z,12732
2017-04-24T11:14:43.288Z,9856
2017-04-24T11:16:04.796Z,7216
2017-04-24T11:17:26.947Z,5484
2017-04-24T11:18:49.413Z,4804
2017-04-24T11:20:11.381Z,4352
2017-04-24T11:21:33.915Z,4384
2017-04-24T11:22:56.849Z,3900
2017-04-24T11:24:18.351Z,3976
2017-04-24T11:25:40.188Z,4376
2017-04-24T11:27:02.006Z,5348
2017-04-24T11:28:24.809Z,5968
2017-04-24T11:29:46.679Z,9408
2017-04-24T11:31:08.839Z,14332
2017-04-24T11:32:31.033Z,12624
2017-04-24T11:33:52.885Z,13332
2017-04-24T11:35:15.378Z,15104
2017-04-24T11:36:37.540Z,19616
2017-04-24T11:38:00.110Z,20640
2017-04-24T11:39:22.199Z,20384
2017-04-24T11:40:44.108Z,21152
2017-04-24T11:42:05.938Z,23040
2017-04-24T11:43:28.415Z,23360
2017-04-24T11:44:50.218Z,23104
2017-04-24T11:46:12.365Z,22592
2017-04-24T11:47:34.207Z,19712
2017-04-24T11:48:56.678Z,13776
2017-04-24T11:50:18.857Z,13004
2017-04-24T11:51:41.330Z,14628
2017-04-24T11:53:02.538Z,15544
2017-04-24T11:54:24.387Z,14056
2017-04-24T11:55:47.038Z,13328
2017-04-24T11:57:09.215Z,13500
2017-04-24T11:58:31.475Z,13984
2017-04-24T11:59:54.018Z,14008
2017-04-24T12:01:16.415Z,12872
2017-04-24T12:02:38.671Z,12544
2017-04-24T12:04:00.840Z,11368
2017-04-24T12:05:23.004Z,11392
2017-04-24T12:06:45.518Z,11204
2017-04-24T12:08:07.342Z,11136
2017-04-24T12:09:29.175Z,11228
2017-04-24T12:10:51.169Z,11812
2017-04-24T12:12:13.689Z,12340
2017-04-24T12:13:35.850Z,11204
2017-04-24T12:14:57.702Z,9456
2017-04-24T12:16:19.985Z,10916
2017-04-24T12:17:42.069Z,11688
2017-04-24T12:19:03.924Z,9428
2017-04-24T12:20:26.389Z,12908
2017-04-24T12:21:48.396Z,11248
2017-04-24T12:23:10.148Z,9916
2017-04-24T12:24:32.285Z,11916
2017-04-24T12:25:54.957Z,11076
2017-04-24T12:27:16.776Z,10860
2017-04-24T12:28:39.543Z,10764
2017-04-24T12:30:01.078Z,10296
2017-04-24T12:31:23.018Z,10388
2017-04-24T12:32:45.176Z,10204
2017-04-24T12:34:08.158Z,9608
2017-04-24T12:35:30.328Z,9668
2017-04-24T12:36:52.822Z,9108
2017-04-24T12:38:14.426Z,7920
2017-04-24T12:39:37.319Z,5672
2017-04-24T12:40:59.882Z,4412
2017-04-24T12:42:21.549Z,3640
2017-04-24T12:43:42.766Z,3260
2017-04-24T12:45:05.424Z,2628
2017-04-24T12:46:27.568Z,2172
2017-04-24T12:47:49.735Z,1924
2017-04-24T12:49:11.564Z,1816
2017-04-24T12:50:33.750Z,2148
2017-04-24T12:51:55.889Z,2124
2017-04-24T12:53:17.749Z,3004
2017-04-24T12:54:39.583Z,4248
2017-04-24T12:56:02.135Z,4448
2017-04-24T12:57:24.290Z,4356
2017-04-24T12:58:46.496Z,4100
2017-04-24T13:00:08.017Z,3824
2017-04-24T13:01:29.976Z,3508
2017-04-24T13:02:51.808Z,3564
2017-04-24T13:04:14.296Z,3852
2017-04-24T13:05:36.637Z,3724
2017-04-24T13:06:59.378Z,3960
2017-04-24T13:08:21.435Z,4584
2017-04-24T13:09:43.276Z,5452
2017-04-24T13:11:05.418Z,6768
2017-04-24T13:12:27.880Z,7828
2017-04-24T13:13:50.028Z,11336
2017-04-24T13:15:12.510Z,9976
2017-04-24T13:16:34.797Z,5456
2017-04-24T13:17:57.070Z,4128
2017-04-24T13:19:19.580Z,6264
2017-04-24T13:20:41.867Z,5704
2017-04-24T13:22:04.037Z,5416
2017-04-24T13:23:25.806Z,6824
2017-04-24T13:24:48.039Z,6968
2017-04-24T13:26:10.199Z,5160
2017-04-24T13:27:32.322Z,4996
2017-04-24T13:28:54.817Z,4624
2017-04-24T13:30:16.717Z,6568
2017-04-24T13:31:39.227Z,6552
2017-04-24T13:33:01.188Z,4844
2017-04-24T13:34:23.986Z,4188
2017-04-24T13:35:46.150Z,5452
2017-04-24T13:37:08.634Z,4140
2017-04-24T13:38:30.793Z,3352
2017-04-24T13:39:53.360Z,5012
2017-04-24T13:41:15.218Z,4820
2017-04-24T13:42:37.690Z,4232
2017-04-24T13:43:59.533Z,2940
2017-04-24T13:45:20.995Z,2208
2017-04-24T13:46:43.458Z,1696
2017-04-24T13:48:05.974Z,1356
2017-04-24T13:49:28.125Z,1228
2017-04-24T13:50:50.003Z,1136
2017-04-24T13:52:12.185Z,1252
2017-04-24T13:53:34.346Z,1256
2017-04-24T13:54:56.817Z,1820
2017-04-24T13:56:19.048Z,2148
2017-04-24T13:57:41.319Z,1808
2017-04-24T13:59:03.478Z,1568
2017-04-24T14:00:24.699Z,1328
2017-04-24T14:01:47.217Z,1600
2017-04-24T14:03:09.070Z,1288
2017-04-24T14:04:31.332Z,1860
2017-04-24T14:05:53.837Z,2312
2017-04-24T14:07:16.714Z,2124
2017-04-24T14:08:38.230Z,2580
2017-04-24T14:10:00.393Z,2392
2017-04-24T14:11:22.606Z,2696
2017-04-24T14:12:44.687Z,2684
2017-04-24T14:14:06.991Z,2144
2017-04-24T14:15:29.151Z,2060
2017-04-24T14:16:50.983Z,1908
2017-04-24T14:18:13.279Z,2212
2017-04-24T14:19:35.763Z,2156
2017-04-24T14:20:57.825Z,2356
2017-04-24T14:22:19.696Z,2924
2017-04-24T14:23:41.838Z,3680
2017-04-24T14:25:03.362Z,4968
2017-04-24T14:26:25.198Z,6244
2017-04-24T14:27:47.659Z,8400
2017-04-24T14:29:10.569Z,9108
2017-04-24T14:30:33.042Z,9876
2017-04-24T14:31:54.887Z,10664
2017-04-24T14:33:17.041Z,11452
2017-04-24T14:34:39.459Z,12136
2017-04-24T14:36:01.660Z,12740
2017-04-24T14:37:23.494Z,12796
2017-04-24T14:38:45.431Z,13384
2017-04-24T14:40:07.948Z,13852
2017-04-24T14:41:30.159Z,13124
2017-04-24T14:42:52.689Z,12352
2017-04-24T14:44:14.854Z,12968
2017-04-24T14:45:36.939Z,14800
2017-04-24T14:46:59.088Z,14724
2017-04-24T14:48:21.626Z,14436
2017-04-24T14:49:43.441Z,14624
2017-04-24T14:51:05.638Z,14860
2017-04-24T14:52:27.170Z,14776
2017-04-24T14:53:49.069Z,14356
2017-04-24T14:55:10.996Z,13736
2017-04-24T14:56:33.959Z,13032
2017-04-24T14:57:55.472Z,12408
2017-04-24T14:59:17.691Z,11736
2017-04-24T15:00:39.558Z,11020
2017-04-24T15:02:01.954Z,10224
2017-04-24T15:03:23.489Z,9408
2017-04-24T15:04:45.703Z,8856
2017-04-24T15:06:08.048Z,8816
2017-04-24T15:07:30.480Z,9172
2017-04-24T15:08:52.325Z,8900
2017-04-24T15:10:14.496Z,9012
2017-04-24T15:11:36.656Z,10120
2017-04-24T15:12:59.197Z,10020
2017-04-24T15:14:21.401Z,9996
2017-04-24T15:15:43.339Z,9376
2017-04-24T15:17:05.188Z,8692
2017-04-24T15:18:27.293Z,8248
2017-04-24T15:19:49.577Z,7604
2017-04-24T15:21:11.447Z,7348
2017-04-24T15:22:32.697Z,6776
2017-04-24T15:23:54.937Z,6920
2017-04-24T15:25:16.789Z,7388
2017-04-24T15:26:38.950Z,7160
2017-04-24T15:28:00.499Z,6876
2017-04-24T15:29:22.994Z,6624
2017-04-24T15:30:44.853Z,6180
2017-04-24T15:32:06.772Z,4396
2017-04-24T15:33:28.306Z,2984
2017-04-24T15:34:50.481Z,2044
2017-04-24T15:36:12.979Z,1800
2017-04-24T15:37:35.238Z,1808
2017-04-24T15:38:57.230Z,1860
2017-04-24T15:40:20.133Z,2368
2017-04-24T15:41:42.279Z,4100
2017-04-24T15:43:04.278Z,6544
2017-04-24T15:44:26.221Z,8592
2017-04-24T15:45:48.677Z,7740
2017-04-24T15:47:10.951Z,7992
2017-04-24T15:48:33.481Z,6892
2017-04-24T15:49:54.984Z,5612
2017-04-24T15:51:17.424Z,4032
2017-04-24T15:52:40.039Z,4056
2017-04-24T15:54:02.543Z,4872
2017-04-24T15:55:24.726Z,7124
2017-04-24T15:56:47.349Z,7344
2017-04-24T15:58:09.328Z,7632
2017-04-24T15:59:31.544Z,7464
2017-04-24T16:00:54.189Z,9248
2017-04-24T16:02:16.973Z,9076
2017-04-24T16:03:39.501Z,7444
2017-04-24T16:05:01.664Z,6664
2017-04-24T16:06:23.893Z,5456
2017-04-24T16:07:46.335Z,4800
2017-04-24T16:09:08.500Z,4604
2017-04-24T16:10:30.341Z,4604
2017-04-24T16:11:51.928Z,4968
2017-04-24T16:13:13.712Z,5772
2017-04-24T16:14:36.021Z,5508
2017-04-24T16:15:58.547Z,4248
2017-04-24T16:17:20.728Z,2956
2017-04-24T16:18:43.149Z,2128
2017-04-24T16:20:37.297Z,1316
2017-04-24T16:21:59.449Z,980
2017-04-24T16:23:21.941Z,820
2017-04-24T16:24:44.460Z,796
2017-04-24T16:26:06.599Z,880
2017-04-24T16:27:28.488Z,1036
2017-04-24T16:28:51.021Z,904
2017-04-24T16:30:13.205Z,788
2017-04-24T16:31:35.378Z,1028
2017-04-24T16:32:57.771Z,1020
2017-04-24T16:34:20.039Z,1028
2017-04-24T16:35:42.529Z,952
2017-04-24T16:37:05.036Z,896
2017-04-24T16:38:27.507Z,1000
2017-04-24T16:39:49.987Z,1052
2017-04-24T16:41:12.242Z,968
2017-04-24T16:42:34.776Z,900
2017-04-24T16:43:56.951Z,952
2017-04-24T16:45:19.087Z,1044
2017-04-24T16:46:40.681Z,1112
2017-04-24T16:48:02.857Z,1060
2017-04-24T16:49:24.799Z,924
2017-04-24T16:50:46.931Z,988
2017-04-24T16:52:09.592Z,936
2017-04-24T16:53:32.221Z,804
2017-04-24T16:54:54.698Z,1052
2017-04-24T16:56:17.488Z,1500
2017-04-24T16:57:39.557Z,1140
2017-04-24T16:59:33.850Z,1316
2017-04-24T17:00:56.502Z,1252
2017-04-24T17:02:19.028Z,1548
2017-04-24T17:03:41.189Z,1472
2017-04-24T17:05:03.719Z,1860
2017-04-24T17:06:26.470Z,1396
2017-04-24T17:07:48.628Z,1044
2017-04-24T17:09:11.319Z,568
2017-04-24T17:10:33.660Z,204
2017-04-24T17:11:56.490Z,428
2017-04-24T17:13:19.039Z,592
2017-04-24T17:14:41.227Z,640
2017-04-24T17:16:07.089Z,656
2017-04-24T17:17:32.579Z,740
2017-04-24T17:18:55.325Z,852
2017-04-24T17:20:17.601Z,700
2017-04-24T17:21:39.779Z,556
2017-04-24T17:23:02.231Z,528
2017-04-24T17:24:24.928Z,576
2017-04-24T17:25:47.204Z,608
2017-04-24T17:27:09.810Z,548
2017-04-24T17:28:31.939Z,548
2017-04-24T17:29:53.929Z,592
2017-04-24T17:31:16.439Z,664
2017-04-24T17:32:38.938Z,684
2017-04-24T17:34:01.503Z,644
2017-04-24T17:35:23.670Z,648
2017-04-24T17:36:45.527Z,660
2017-04-24T17:38:07.800Z,680
2017-04-24T17:39:30.374Z,576
2017-04-24T17:40:52.567Z,584
2017-04-24T17:42:14.452Z,404
2017-04-24T17:43:37.011Z,340
2017-04-24T17:44:59.488Z,272
2017-04-24T17:46:21.642Z,404
2017-04-24T17:47:43.511Z,468
2017-04-24T17:49:06.138Z,540
2017-04-24T17:50:28.019Z,580
2017-04-24T17:51:50.215Z,568
2017-04-24T17:53:12.082Z,492
2017-04-24T17:54:34.568Z,392
2017-04-24T17:55:56.990Z,316
2017-04-24T17:57:19.513Z,296
2017-04-24T17:58:44.554Z,336
2017-04-24T18:00:07.280Z,336
2017-04-24T18:01:30.099Z,384
2017-04-24T18:02:52.289Z,324
2017-04-24T18:04:14.894Z,284
2017-04-24T18:05:37.408Z,244
2017-04-24T18:07:00.278Z,204
2017-04-24T18:08:22.790Z,196
2017-04-24T18:09:44.985Z,204
2017-04-24T18:11:07.187Z,208
2017-04-24T18:12:29.961Z,204
2017-04-24T18:13:52.229Z,200
2017-04-24T18:15:14.379Z,224
2017-04-24T18:16:36.629Z,196
2017-04-24T18:17:59.049Z,132
2017-04-24T18:19:21.559Z,132
2017-04-24T18:20:43.461Z,172
2017-04-24T18:22:06.008Z,204
2017-04-24T18:23:28.517Z,180
2017-04-24T18:24:50.709Z,132
2017-04-24T18:26:13.328Z,132
2017-04-24T18:27:35.927Z,176
2017-04-24T18:28:58.852Z,168
2017-04-24T18:30:21.504Z,108